createdAt,value
2022-08-03T00:01:41.623Z,98322.29
2022-08-03T00:05:36.352Z,98322.68
2022-08-03T00:08:57.735Z,98324.14
2022-08-03T00:12:36.344Z,98325.44
2022-08-03T00:16:11.256Z,98324.39
2022-08-03T00:19:48.068Z,98323.49
2022-08-03T00:23:52.208Z,98320.98
2022-08-03T00:27:16.709Z,98319.39
2022-08-03T00:31:09.260Z,98321.54
2022-08-03T00:34:57.238Z,98318.66
2022-08-03T00:38:16.145Z,98319.98
2022-08-03T00:41:52.759Z,98316.55
2022-08-03T00:45:34.620Z,98318.04
2022-08-03T00:49:06.591Z,98321.86
2022-08-03T00:52:43.296Z,98323.70
2022-08-03T00:56:40.413Z,98322.08
2022-08-03T01:00:25.148Z,98325.41
2022-08-03T01:03:57.556Z,98326.10
2022-08-03T01:07:52.941Z,98324.20
2022-08-03T01:11:32.470Z,98327.74
2022-08-03T01:15:43.801Z,98328.37
2022-08-03T01:19:29.069Z,98334.59
2022-08-03T01:23:05.875Z,98332.30
2022-08-03T01:26:55.884Z,98332.83
2022-08-03T01:30:17.516Z,98342.20
2022-08-03T01:34:00.746Z,98339.35
2022-08-03T01:37:45.454Z,98341.52
2022-08-03T01:41:13.797Z,98339.63
2022-08-03T01:44:45.534Z,98334.22
2022-08-03T01:48:22.038Z,98328.10
2022-08-03T01:52:19.904Z,98326.98
2022-08-03T01:55:42.059Z,98332.05
2022-08-03T01:59:20.499Z,98328.00
2022-08-03T02:02:56.242Z,98327.50
2022-08-03T02:07:02.731Z,98326.38
2022-08-03T02:10:35.631Z,98327.75
2022-08-03T02:14:04.142Z,98328.86
2022-08-03T02:17:58.945Z,98326.69
2022-08-03T02:21:57.172Z,98322.40
2022-08-03T02:25:03.010Z,98320.55
2022-08-03T02:28:43.610Z,98320.40
2022-08-03T02:32:21.422Z,98316.92
2022-08-03T02:35:55.220Z,98313.72
2022-08-03T02:39:33.448Z,98320.66
2022-08-03T02:43:29.247Z,98314.95
2022-08-03T02:47:12.631Z,98314.31
2022-08-03T02:50:48.781Z,98315.55
2022-08-03T02:54:25.393Z,98309.52
2022-08-03T02:58:20.848Z,98314.61
2022-08-03T03:01:42.101Z,98315.86
2022-08-03T03:05:52.134Z,98314.61
2022-08-03T03:09:01.233Z,98316.79
2022-08-03T03:12:39.145Z,98318.70
2022-08-03T03:16:15.591Z,98318.73
2022-08-03T03:20:10.916Z,98318.22
2022-08-03T03:23:32.420Z,98314.85
2022-08-03T03:27:27.536Z,98316.58
2022-08-03T03:30:52.605Z,98319.40
2022-08-03T03:34:25.572Z,98320.55
2022-08-03T03:38:02.056Z,98324.70
2022-08-03T03:41:59.428Z,98331.42
2022-08-03T03:45:21.958Z,98333.21
2022-08-03T03:48:57.005Z,98334.31
2022-08-03T03:52:34.286Z,98337.16
2022-08-03T03:56:10.622Z,98335.44
2022-08-03T03:59:47.359Z,98341.75
2022-08-03T04:03:24.568Z,98348.71
2022-08-03T04:07:19.681Z,98349.06
2022-08-03T04:11:10.492Z,98350.60
2022-08-03T04:14:37.586Z,98356.52
2022-08-03T04:18:12.681Z,98358.05
2022-08-03T04:22:09.111Z,98359.02
2022-08-03T04:25:51.457Z,98364.80
2022-08-03T04:29:14.854Z,98360.77
2022-08-03T04:32:52.055Z,98363.39
2022-08-03T04:36:28.099Z,98365.51
2022-08-03T04:40:32.419Z,98369.70
2022-08-03T04:43:56.386Z,98374.12
2022-08-03T04:47:33.344Z,98377.31
2022-08-03T04:51:06.957Z,98375.75
2022-08-03T04:54:50.675Z,98375.23
2022-08-03T04:58:39.533Z,98378.98
2022-08-03T05:02:00.514Z,98374.43
2022-08-03T05:05:50.086Z,98371.48
2022-08-03T05:09:14.132Z,98376.20
2022-08-03T05:12:51.782Z,98377.22
2022-08-03T05:16:27.914Z,98371.71
2022-08-03T05:20:23.295Z,98374.88
2022-08-03T05:23:45.071Z,98373.87
2022-08-03T05:27:20.852Z,98377.74
2022-08-03T05:30:57.807Z,98377.69
2022-08-03T05:34:34.662Z,98380.34
2022-08-03T05:38:34.240Z,98378.82
2022-08-03T05:41:56.036Z,98378.23
2022-08-03T05:45:33.093Z,98381.23
2022-08-03T05:49:28.418Z,98379.88
2022-08-03T05:52:49.129Z,98384.77
2022-08-03T05:56:45.776Z,98390.88
2022-08-03T06:00:25.738Z,98389.27
2022-08-03T06:03:46.512Z,98392.94
2022-08-03T06:07:23.539Z,98392.71
2022-08-03T06:11:00.128Z,98391.73
2022-08-03T06:14:36.811Z,98398.24
2022-08-03T06:18:13.687Z,98396.59
2022-08-03T06:21:50.466Z,98392.10
2022-08-03T06:25:27.680Z,98394.42
2022-08-03T06:29:04.096Z,98401.22
2022-08-03T06:33:00.732Z,98402.33
2022-08-03T06:36:21.749Z,98406.17
2022-08-03T06:39:58.987Z,98410.46
2022-08-03T06:43:37.956Z,98409.98
2022-08-03T06:47:12.201Z,98415.41
2022-08-03T06:50:48.894Z,98415.79
2022-08-03T06:54:44.461Z,98412.69
2022-08-03T06:58:05.204Z,98413.27
2022-08-03T07:01:41.997Z,98409.83
2022-08-03T07:05:38.619Z,98409.14
2022-08-03T07:08:59.829Z,98407.89
2022-08-03T07:12:37.146Z,98404.59
2022-08-03T07:16:17.811Z,98409.85
2022-08-03T07:19:54.515Z,98412.71
2022-08-03T07:23:50.361Z,98410.64
2022-08-03T07:27:11.742Z,98405.27
2022-08-03T07:30:48.101Z,98401.22
2022-08-03T07:34:25.785Z,98403.11
2022-08-03T07:38:01.879Z,98401.93
2022-08-03T07:41:38.476Z,98401.87
2022-08-03T07:45:34.084Z,98406.35
2022-08-03T07:48:55.072Z,98405.58
2022-08-03T07:52:50.201Z,98406.95
2022-08-03T07:56:12.332Z,98412.67
2022-08-03T08:00:16.079Z,98417.63
2022-08-03T08:03:55.685Z,98419.06
2022-08-03T08:07:35.714Z,98415.64
2022-08-03T08:10:57.910Z,98417.86
2022-08-03T08:14:33.127Z,98419.05
2022-08-03T08:18:09.883Z,98422.61
2022-08-03T08:21:53.105Z,98421.52
2022-08-03T08:25:23.759Z,98425.05
2022-08-03T08:29:00.284Z,98421.38
2022-08-03T08:32:37.589Z,98419.81
2022-08-03T08:36:33.833Z,98424.02
2022-08-03T08:39:56.679Z,98427.78
2022-08-03T08:43:31.611Z,98429.65
2022-08-03T08:47:09.426Z,98426.52
2022-08-03T08:50:53.611Z,98417.90
2022-08-03T08:54:23.413Z,98421.61
2022-08-03T08:58:13.033Z,98418.60
2022-08-03T09:01:42.937Z,98420.56
2022-08-03T09:05:31.488Z,98419.58
2022-08-03T09:10:01.232Z,98422.53
2022-08-03T09:13:21.389Z,98419.73
2022-08-03T09:17:00.708Z,98423.96
2022-08-03T09:20:24.355Z,98420.42
2022-08-03T09:24:03.329Z,98419.25
2022-08-03T09:27:54.589Z,98417.25
2022-08-03T09:31:15.488Z,98412.77
2022-08-03T09:34:57.876Z,98409.73
2022-08-03T09:39:05.811Z,98406.45
2022-08-03T09:42:27.569Z,98404.92
2022-08-03T09:46:05.511Z,98407.45
2022-08-03T09:49:42.403Z,98408.64
2022-08-03T09:53:19.072Z,98410.13
2022-08-03T09:56:54.352Z,98407.54
2022-08-03T10:00:30.426Z,98405.16
2022-08-03T10:04:16.866Z,98402.20
2022-08-03T10:08:18.165Z,98402.02
2022-08-03T10:11:42.615Z,98399.02
2022-08-03T10:16:23.717Z,98396.37
2022-08-03T10:18:59.523Z,98398.80
2022-08-03T10:22:37.320Z,98395.86
2022-08-03T10:26:16.398Z,98397.51
2022-08-03T10:29:53.840Z,98392.73
2022-08-03T10:33:51.389Z,98388.80
2022-08-03T10:37:17.662Z,98384.23
2022-08-03T10:40:58.947Z,98379.69
2022-08-03T10:44:33.984Z,98381.45
2022-08-03T10:48:24.873Z,98377.08
2022-08-03T10:51:53.411Z,98376.41
2022-08-03T10:55:56.986Z,98373.91
2022-08-03T10:59:45.162Z,98372.18
2022-08-03T11:03:16.846Z,98377.59
2022-08-03T11:06:44.101Z,98374.84
2022-08-03T11:10:33.435Z,98373.67
2022-08-03T11:14:13.827Z,98369.13
2022-08-03T11:17:46.746Z,98368.18
2022-08-03T11:21:17.850Z,98364.73
2022-08-03T11:24:57.763Z,98363.08
2022-08-03T11:28:50.107Z,98365.04
2022-08-03T11:32:11.105Z,98360.61
2022-08-03T11:36:07.417Z,98361.98
2022-08-03T11:39:45.973Z,98359.19
2022-08-03T11:43:31.288Z,98354.23
2022-08-03T11:46:52.768Z,98351.98
2022-08-03T11:50:37.962Z,98351.48
2022-08-03T11:54:08.105Z,98349.98
2022-08-03T11:59:15.241Z,98347.73
2022-08-03T12:02:07.887Z,98340.20
2022-08-03T12:05:39.197Z,98339.33
2022-08-03T12:09:16.309Z,98336.92
2022-08-03T12:12:46.361Z,98339.30
2022-08-03T12:16:23.900Z,98337.20
2022-08-03T12:20:34.910Z,98332.63
2022-08-03T12:24:01.179Z,98331.65
2022-08-03T12:27:33.880Z,98328.30
2022-08-03T12:31:10.254Z,98322.40
2022-08-03T12:34:49.027Z,98320.63
2022-08-03T12:38:23.862Z,98320.23
2022-08-03T12:42:19.782Z,98321.61
2022-08-03T12:45:41.084Z,98321.33
2022-08-03T12:49:19.255Z,98317.02
2022-08-03T12:52:54.956Z,98315.74
2022-08-03T12:56:57.067Z,98313.73
2022-08-03T13:00:29.174Z,98309.01
2022-08-03T13:04:35.487Z,98308.37
2022-08-03T13:07:57.194Z,98300.01
2022-08-03T13:12:09.936Z,98297.52
2022-08-03T13:15:49.583Z,98301.56
2022-08-03T13:19:15.393Z,98300.40
2022-08-03T13:22:48.392Z,98301.80
2022-08-03T13:26:24.128Z,98300.97
2022-08-03T13:30:00.981Z,98299.08
2022-08-03T13:33:56.668Z,98293.52
2022-08-03T13:37:17.980Z,98293.99
2022-08-03T13:40:54.788Z,98294.13
2022-08-03T13:44:32.564Z,98295.19
2022-08-03T13:48:37.247Z,98293.17
2022-08-03T13:51:58.918Z,98289.17
2022-08-03T13:55:35.736Z,98287.48
2022-08-03T13:59:31.064Z,98286.21
2022-08-03T14:03:14.122Z,98282.44
2022-08-03T14:06:35.406Z,98279.11
2022-08-03T14:10:12.213Z,98278.00
2022-08-03T14:13:49.033Z,98276.10
2022-08-03T14:17:25.816Z,98280.64
2022-08-03T14:21:07.310Z,98274.38
2022-08-03T14:24:39.608Z,98269.79
2022-08-03T14:28:16.236Z,98271.48
2022-08-03T14:32:09.893Z,98266.50
2022-08-03T14:35:53.513Z,98260.84
2022-08-03T14:43:14.586Z,98254.61
2022-08-03T14:46:50.492Z,98254.69
2022-08-03T14:50:42.898Z,98251.80
2022-08-03T14:54:24.661Z,98248.70
2022-08-03T14:57:45.490Z,98245.23
2022-08-03T15:02:02.387Z,98242.90
2022-08-03T15:05:04.706Z,98238.69
2022-08-03T15:08:40.054Z,98238.11
2022-08-03T15:12:16.873Z,98240.92
2022-08-03T15:16:12.458Z,98236.88
2022-08-03T15:20:00.342Z,98233.18
2022-08-03T15:23:33.069Z,98228.94
2022-08-03T15:26:54.064Z,98229.07
2022-08-03T15:30:51.906Z,98224.64
2022-08-03T15:34:31.425Z,98228.95
2022-08-03T15:37:52.324Z,98224.80
2022-08-03T15:41:28.967Z,98217.16
2022-08-03T15:45:24.476Z,98221.05
2022-08-03T15:49:07.695Z,98216.83
2022-08-03T15:52:47.499Z,98214.67
2022-08-03T15:56:14.220Z,98215.44
2022-08-03T16:00:10.257Z,98212.05
2022-08-03T16:03:34.665Z,98209.45
2022-08-03T16:07:58.580Z,98206.28
2022-08-03T16:11:23.427Z,98201.58
2022-08-03T16:15:18.961Z,98198.27
2022-08-03T16:18:40.062Z,98196.23
2022-08-03T16:22:19.595Z,98190.34
2022-08-03T16:26:12.076Z,98187.66
2022-08-03T16:29:32.889Z,98186.23
2022-08-03T16:33:11.280Z,98183.92
2022-08-03T16:36:46.623Z,98182.44
2022-08-03T16:40:25.142Z,98177.22
2022-08-03T16:44:00.184Z,98180.89
2022-08-03T16:47:37.083Z,98181.57
2022-08-03T16:51:13.820Z,98182.89
2022-08-03T16:54:52.726Z,98182.98
2022-08-03T16:58:41.405Z,98181.80
2022-08-03T17:02:10.162Z,98185.05
2022-08-03T17:05:47.014Z,98186.81
2022-08-03T17:09:21.548Z,98185.77
2022-08-03T17:12:55.135Z,98185.16
2022-08-03T17:16:31.495Z,98186.13
2022-08-03T17:20:15.780Z,98185.79
2022-08-03T17:24:12.348Z,98185.09
2022-08-03T17:28:49.098Z,98189.33
2022-08-03T17:31:23.373Z,98192.65
2022-08-03T17:34:55.406Z,98192.73
2022-08-03T17:38:31.895Z,98197.06
2022-08-03T17:42:30.323Z,98201.91
2022-08-03T17:45:54.873Z,98203.24
2022-08-03T17:49:31.132Z,98202.84
2022-08-03T17:53:28.619Z,98203.34
2022-08-03T17:57:22.424Z,98208.94
2022-08-03T18:02:05.657Z,98210.25
2022-08-03T18:05:00.508Z,98213.73
2022-08-03T18:08:49.819Z,98215.95
2022-08-03T18:12:36.539Z,98218.64
2022-08-03T18:16:02.475Z,98221.48
2022-08-03T18:20:03.211Z,98225.02
2022-08-03T18:27:03.285Z,98226.84
2022-08-03T18:30:54.712Z,98225.13
2022-08-03T18:34:32.656Z,98228.98
2022-08-03T18:37:58.149Z,98231.86
2022-08-03T18:41:34.613Z,98238.28
2022-08-03T18:45:57.123Z,98234.77
2022-08-03T18:49:48.287Z,98238.92
2022-08-03T18:54:02.225Z,98243.70
2022-08-03T18:57:16.529Z,98246.91
2022-08-03T19:01:57.403Z,98249.36
2022-08-03T19:05:10.672Z,98254.40
2022-08-03T19:08:47.925Z,98255.34
2022-08-03T19:12:30.752Z,98260.10
2022-08-03T19:15:57.845Z,98262.23
2022-08-03T19:19:44.470Z,98263.80
2022-08-03T19:23:33.954Z,98259.92
2022-08-03T19:26:56.051Z,98261.52
2022-08-03T19:30:54.648Z,98262.58
2022-08-03T19:34:17.701Z,98264.27
2022-08-03T19:37:52.641Z,98264.98
2022-08-03T19:41:42.336Z,98265.40
2022-08-03T19:45:11.365Z,98264.30
2022-08-03T19:49:14.459Z,98264.65
2022-08-03T19:52:57.144Z,98267.55
2022-08-03T19:56:24.148Z,98269.86
2022-08-03T19:59:56.520Z,98267.27
2022-08-03T20:03:43.027Z,98270.34
2022-08-03T20:07:08.059Z,98265.24
2022-08-03T20:11:04.464Z,98267.42
2022-08-03T20:14:28.335Z,98265.19
2022-08-03T20:18:23.203Z,98262.00
2022-08-03T20:21:46.981Z,98260.48
2022-08-03T20:25:58.324Z,98254.26
2022-08-03T20:30:04.989Z,98255.40
2022-08-03T20:37:22.016Z,98248.48
2022-08-03T20:40:59.288Z,98251.35
2022-08-03T20:44:36.899Z,98253.09
2022-08-03T20:48:13.304Z,98252.27
2022-08-03T20:52:18.616Z,98258.09
2022-08-03T20:55:47.483Z,98254.17
2022-08-03T20:59:28.795Z,98257.45
2022-08-03T21:03:00.356Z,98260.80
2022-08-03T21:07:01.000Z,98263.11
2022-08-03T21:10:44.899Z,98264.06
2022-08-03T21:12:57.899Z,98224.18
2022-08-03T21:13:07.169Z,98250.23
2022-08-03T21:14:15.358Z,98263.31
2022-08-03T21:17:47.002Z,98265.35
2022-08-03T21:21:23.426Z,98265.63
2022-08-03T21:24:57.701Z,98267.72
2022-08-03T21:28:32.816Z,98268.91
2022-08-03T21:32:32.896Z,98269.27
2022-08-03T21:35:54.485Z,98273.11
2022-08-03T21:39:30.843Z,98274.27
2022-08-03T21:43:08.041Z,98271.02
2022-08-03T21:46:45.429Z,98276.20
2022-08-03T21:50:22.272Z,98278.10
2022-08-03T21:54:03.525Z,98279.58
2022-08-03T21:57:37.633Z,98284.34
2022-08-03T22:01:13.667Z,98277.38
2022-08-03T22:05:07.667Z,98278.83
2022-08-03T22:08:28.704Z,98279.85
2022-08-03T22:12:05.659Z,98284.75
2022-08-03T22:16:01.573Z,98287.49
2022-08-03T22:19:23.261Z,98287.02
2022-08-03T22:23:21.905Z,98285.95
2022-08-03T22:27:03.885Z,98283.89
2022-08-03T22:30:47.237Z,98283.23
2022-08-03T22:34:08.494Z,98283.63
2022-08-03T22:37:49.247Z,98282.92
2022-08-03T22:41:41.346Z,98282.88
2022-08-03T22:45:06.552Z,98279.64
2022-08-03T22:48:41.759Z,98283.67
2022-08-03T22:52:18.042Z,98282.64
2022-08-03T22:55:54.970Z,98279.88
2022-08-03T22:59:49.498Z,98281.41
2022-08-03T23:03:10.536Z,98284.78
2022-08-03T23:06:51.661Z,98274.48
2022-08-03T23:10:47.237Z,98274.61
2022-08-03T23:14:13.617Z,98280.91
2022-08-03T23:17:57.844Z,98279.19
2022-08-03T23:22:00.293Z,98277.78
2022-08-03T23:25:04.900Z,98279.84
2022-08-03T23:28:45.210Z,98278.45
2022-08-03T23:32:37.417Z,98272.98
2022-08-03T23:36:29.637Z,98264.98
2022-08-03T23:40:07.493Z,98260.20
2022-08-03T23:43:51.217Z,98255.25
2022-08-03T23:47:14.876Z,98254.52
2022-08-03T23:51:00.203Z,98256.67
2022-08-03T23:54:49.856Z,98259.82
2022-08-03T23:58:59.435Z,98261.42
